Time;durP1;ratioP1;P1;durP2;ratioP2;P2;SDS_P1;SDS_P2;PMS_P1;PMS_P2;Temp;Humidity;BMP_temperature;BMP_pressure;BME280_temperature;BME280_humidity;BME280_pressure;Samples;Min_cycle;Max_cycle;Signal;HPM_P1;HPM_P2
2021/12/03 00:02:10;;;;;;;;;39.00;30.50;;;;;3.56;64.40;100739.41;5056125;28;45184;-61
2021/12/03 00:04:36;;;;;;;;;43.25;35.00;;;;;3.51;64.73;100731.84;5057373;28;45269;-61
2021/12/03 00:07:01;;;;;;;;;38.50;27.00;;;;;3.49;64.84;100735.47;5058561;28;69623;-61
2021/12/03 00:09:27;;;;;;;;;30.25;25.25;;;;;3.45;64.93;100739.16;5059519;28;45277;-62
2021/12/03 00:11:52;;;;;;;;;30.50;24.50;;;;;3.43;65.18;100731.47;5058394;28;45356;-61
2021/12/03 00:14:18;;;;;;;;;32.00;25.50;;;;;3.42;65.07;100729.78;5058757;28;61386;-62
2021/12/03 00:16:43;;;;;;;;;30.00;24.00;;;;;3.40;65.21;100731.63;5057628;28;47059;-62
2021/12/03 00:19:08;;;;;;;;;27.25;26.00;;;;;3.39;65.21;100729.97;5058754;28;61928;-61
2021/12/03 00:21:34;;;;;;;;;37.00;29.25;;;;;3.40;65.34;100727.28;5059544;28;45864;-61
2021/12/03 00:23:59;;;;;;;;;35.75;31.75;;;;;3.42;65.41;100735.81;5059303;28;45532;-62
2021/12/03 00:26:25;;;;;;;;;51.00;38.75;;;;;3.43;65.33;100736.66;5058722;28;58269;-61
2021/12/03 00:28:50;;;;;;;;;55.00;40.75;;;;;3.43;65.18;100731.47;5058309;28;67385;-61
2021/12/03 00:31:15;;;;;;;;;55.00;42.25;;;;;3.40;64.88;100742.84;5058696;28;59310;-61
2021/12/03 00:33:41;;;;;;;;;54.75;41.50;;;;;3.40;65.17;100749.81;5057355;28;63884;-62
2021/12/03 00:36:08;;;;;;;;;50.75;37.50;;;;;3.39;65.09;100738.59;5059114;28;46092;-61
2021/12/03 00:38:37;;;;;;;;;62.25;46.00;;;;;3.38;65.17;100736.09;5041178;28;45651;-61
2021/12/03 00:41:05;;;;;;;;;57.75;45.00;;;;;3.37;65.11;100735.22;5042098;28;45309;-61
2021/12/03 00:43:31;;;;;;;;;64.25;47.50;;;;;3.35;64.86;100742.25;5057905;28;45575;-61
2021/12/03 00:46:04;;;;;;;;;63.50;46.50;;;;;3.34;64.81;100745.78;5040954;28;46101;-61
2021/12/03 00:48:29;;;;;;;;;61.50;47.00;;;;;3.32;65.04;100739.00;5074522;28;45458;-62
2021/12/03 00:50:55;;;;;;;;;63.00;48.50;;;;;3.29;65.45;100737.41;5058215;28;61743;-62
2021/12/03 00:53:20;;;;;;;;;61.75;48.25;;;;;3.27;65.51;100736.66;5058326;28;55895;-61
2021/12/03 00:55:45;;;;;;;;;60.50;48.25;;;;;3.24;65.38;100742.88;5058035;28;67640;-61
2021/12/03 00:58:11;;;;;;;;;57.75;46.25;;;;;3.23;65.72;100758.50;5058004;28;65296;-62
2021/12/03 01:00:36;;;;;;;;;55.50;42.00;;;;;3.22;65.58;100767.22;5058939;28;45322;-62
2021/12/03 01:03:02;;;;;;;;;45.50;38.75;;;;;3.20;65.54;100769.91;5057934;28;64445;-62
2021/12/03 01:05:27;;;;;;;;;43.25;37.25;;;;;3.20;65.43;100769.91;5058557;28;46505;-61
2021/12/03 01:07:53;;;;;;;;;38.50;35.00;;;;;3.20;65.81;100769.06;5058021;28;60063;-62
2021/12/03 01:10:18;;;;;;;;;46.25;37.25;;;;;3.17;65.77;100767.47;5058796;28;45223;-61
2021/12/03 01:12:43;;;;;;;;;42.00;35.00;;;;;3.20;65.80;100775.09;5058700;28;45244;-61
2021/12/03 01:15:14;;;;;;;;;39.25;30.50;;;;;3.22;65.58;100772.41;5057946;28;46072;-61
2021/12/03 01:17:40;;;;;;;;;40.25;36.00;;;;;3.22;65.66;100775.00;5057967;28;45777;-61
2021/12/03 01:20:07;;;;;;;;;40.00;27.75;;;;;3.22;65.88;100777.59;5056587;28;60034;-62
2021/12/03 01:22:32;;;;;;;;;28.25;24.00;;;;;3.21;65.85;100770.75;5058554;28;45239;-61
2021/12/03 01:24:57;;;;;;;;;34.25;28.00;;;;;3.21;66.00;100770.75;5058393;28;46701;-61
2021/12/03 01:27:23;;;;;;;;;33.50;26.50;;;;;3.21;65.93;100773.34;5058282;28;45371;-62
2021/12/03 01:29:48;;;;;;;;;37.25;28.75;;;;;3.21;66.17;100779.38;5058451;28;45270;-61
2021/12/03 01:32:14;;;;;;;;;42.50;32.25;;;;;3.23;66.05;100787.06;5058231;28;45387;-62
2021/12/03 01:34:39;;;;;;;;;37.25;29.75;;;;;3.23;65.88;100779.28;5058224;28;46612;-62
2021/12/03 01:37:05;;;;;;;;;36.25;30.25;;;;;3.24;65.86;100778.38;5058276;28;45340;-61
2021/12/03 01:39:30;;;;;;;;;46.25;39.50;;;;;3.24;65.84;100783.56;5058195;28;45170;-61
2021/12/03 01:41:55;;;;;;;;;39.75;35.25;;;;;3.23;66.10;100784.47;5060448;28;45201;-62
2021/12/03 01:44:21;;;;;;;;;43.25;37.50;;;;;3.22;65.91;100781.06;5059720;28;62976;-61
2021/12/03 01:46:46;;;;;;;;;38.25;30.75;;;;;3.23;65.83;100779.28;5078432;28;45285;-61
2021/12/03 01:49:12;;;;;;;;;29.50;25.25;;;;;3.23;66.12;100776.69;5077837;28;61293;-62
2021/12/03 01:51:37;;;;;;;;;33.00;27.75;;;;;3.24;65.78;100789.59;5078563;28;45315;-61
2021/12/03 01:54:03;;;;;;;;;27.25;24.50;;;;;3.24;65.92;100794.81;5077595;28;69017;-61
2021/12/03 01:56:28;;;;;;;;;34.00;28.50;;;;;3.23;66.05;100802.66;5078275;28;45355;-61
2021/12/03 01:58:54;;;;;;;;;33.25;29.50;;;;;3.20;65.92;100808.00;5078443;28;45482;-62
2021/12/03 02:01:22;;;;;;;;;35.00;31.75;;;;;3.19;66.09;100796.81;5077812;28;51727;-61
2021/12/03 02:03:48;;;;;;;;;39.00;29.50;;;;;3.16;65.88;100794.38;5059994;28;45292;-61
2021/12/03 02:06:14;;;;;;;;;31.75;29.75;;;;;3.14;66.04;100790.19;5078265;28;45426;-61
2021/12/03 02:08:40;;;;;;;;;37.75;35.50;;;;;3.15;66.34;100784.06;5078286;28;45355;-61
2021/12/03 02:11:06;;;;;;;;;46.25;37.25;;;;;3.15;66.54;100786.69;5078173;28;45490;-62
2021/12/03 02:13:32;;;;;;;;;37.25;31.25;;;;;3.16;66.03;100793.53;5060010;28;45427;-61
2021/12/03 02:15:57;;;;;;;;;28.25;26.50;;;;;3.15;66.08;100787.50;5059111;28;66579;-62
2021/12/03 02:18:23;;;;;;;;;27.25;25.00;;;;;3.16;65.94;100788.34;5059663;28;49290;-62
2021/12/03 02:20:48;;;;;;;;;41.50;31.00;;;;;3.17;66.10;100790.03;5059963;28;45320;-61
2021/12/03 02:23:15;;;;;;;;;32.25;26.25;;;;;3.17;66.03;100782.25;5059840;28;45334;-61
2021/12/03 02:25:43;;;;;;;;;36.25;32.50;;;;;3.17;66.28;100779.66;5077796;28;45859;-61
2021/12/03 02:28:09;;;;;;;;;35.50;29.50;;;;;3.14;66.04;100792.78;5059343;28;45413;-61
2021/12/03 02:30:34;;;;;;;;;35.25;33.00;;;;;3.14;66.11;100788.41;5077031;28;65754;-61
2021/12/03 02:33:00;;;;;;;;;44.50;37.25;;;;;3.14;65.98;100785.81;5059647;28;45659;-62
2021/12/03 02:35:25;;;;;;;;;41.75;35.00;;;;;3.11;65.93;100779.03;5042857;28;45274;-61
2021/12/03 02:37:51;;;;;;;;;35.50;31.50;;;;;3.10;66.01;100777.38;5077779;28;45297;-61
2021/12/03 02:40:16;;;;;;;;;36.25;31.00;;;;;3.09;66.06;100786.06;5077959;28;45249;-61
2021/12/03 02:42:42;;;;;;;;;38.00;32.50;;;;;3.10;66.33;100789.50;5077437;28;45549;-61
2021/12/03 02:45:08;;;;;;;;;41.00;30.25;;;;;3.10;66.30;100789.50;5059580;28;45384;-61
2021/12/03 02:47:33;;;;;;;;;33.25;28.50;;;;;3.12;66.50;100782.47;5076599;28;45336;-61
2021/12/03 02:49:59;;;;;;;;;44.50;33.75;;;;;3.13;66.32;100789.34;5077831;28;45334;-61
2021/12/03 02:52:24;;;;;;;;;35.50;33.25;;;;;3.13;66.30;100783.31;5076438;28;71553;-62
2021/12/03 02:54:49;;;;;;;;;39.00;32.00;;;;;3.15;66.64;100784.06;5076598;28;65376;-61
2021/12/03 02:57:15;;;;;;;;;40.00;34.00;;;;;3.16;66.67;100780.56;5076644;28;68078;-61
2021/12/03 02:59:40;;;;;;;;;48.00;37.25;;;;;3.15;66.16;100771.09;5076642;28;64552;-61
2021/12/03 03:02:06;;;;;;;;;36.50;33.00;;;;;3.14;66.29;100767.66;5076748;28;60958;-61
2021/12/03 03:04:31;;;;;;;;;43.50;36.00;;;;;3.13;66.52;100758.19;5077276;28;45374;-62
2021/12/03 03:06:57;;;;;;;;;44.00;37.00;;;;;3.13;66.77;100752.16;5059272;28;45755;-62
2021/12/03 03:09:22;;;;;;;;;39.25;31.00;;;;;3.12;66.49;100743.53;5077327;28;45604;-61
2021/12/03 03:11:47;;;;;;;;;38.50;32.25;;;;;3.12;66.77;100738.31;5077046;28;46515;-61
2021/12/03 03:14:13;;;;;;;;;47.00;36.75;;;;;3.13;66.84;100736.59;5077104;28;45324;-61
2021/12/03 03:16:39;;;;;;;;;41.75;33.00;;;;;3.13;66.59;100739.19;5076549;28;59941;-61
2021/12/03 03:19:11;;;;;;;;;42.75;34.75;;;;;3.11;66.73;100736.66;5058070;28;66957;-61
2021/12/03 03:21:37;;;;;;;;;47.00;36.75;;;;;3.10;66.76;100730.63;5076982;28;46143;-61
2021/12/03 03:24:03;;;;;;;;;35.50;32.50;;;;;3.10;66.21;100738.44;5076901;28;48340;-61
2021/12/03 03:26:28;;;;;;;;;40.00;33.25;;;;;3.09;66.34;100736.75;5059108;28;45336;-61
2021/12/03 03:28:57;;;;;;;;;40.50;34.50;;;;;3.10;66.72;100735.81;5041249;28;68691;-61
2021/12/03 03:31:22;;;;;;;;;46.50;35.50;;;;;3.11;66.93;100737.50;5059127;28;45465;-62
2021/12/03 03:33:47;;;;;;;;;42.75;33.25;;;;;3.11;66.52;100736.66;5058813;28;45407;-62
2021/12/03 03:36:13;;;;;;;;;42.50;35.00;;;;;3.11;66.89;100741.84;5076448;28;54475;-62
2021/12/03 03:38:38;;;;;;;;;42.25;33.00;;;;;3.11;66.73;100742.69;5075959;27;45332;-61
2021/12/03 03:41:04;;;;;;;;;38.50;33.00;;;;;3.11;66.84;100740.09;5075356;28;70564;-61
2021/12/03 03:43:29;;;;;;;;;42.25;34.75;;;;;3.11;66.93;100742.69;5058032;28;58975;-61
2021/12/03 03:45:54;;;;;;;;;34.00;29.25;;;;;3.11;66.80;100747.88;5058246;28;53487;-61
2021/12/03 03:48:20;;;;;;;;;37.75;34.25;;;;;3.10;66.52;100742.75;5075713;28;68770;-62
2021/12/03 03:50:45;;;;;;;;;41.00;34.25;;;;;3.09;67.01;100743.69;5058531;28;46532;-61
2021/12/03 03:53:11;;;;;;;;;42.75;32.50;;;;;3.07;66.67;100741.19;5076574;28;45257;-61
2021/12/03 03:55:37;;;;;;;;;39.50;35.50;;;;;3.07;67.13;100738.59;5058546;28;45424;-61
2021/12/03 03:58:02;;;;;;;;;41.00;35.00;;;;;3.07;66.75;100733.41;5058475;28;45245;-62
2021/12/03 04:00:32;;;;;;;;;39.25;34.75;;;;;3.09;66.70;100739.34;5076007;28;45818;-62
2021/12/03 04:02:57;;;;;;;;;35.00;32.50;;;;;3.09;66.72;100734.16;5076553;28;45701;-61
2021/12/03 04:05:22;;;;;;;;;43.00;32.75;;;;;3.08;66.54;100727.28;5075604;28;64877;-60
2021/12/03 04:07:48;;;;;;;;;36.25;32.00;;;;;3.07;66.71;100725.59;5057387;28;62349;-61
2021/12/03 04:10:13;;;;;;;;;41.50;33.25;;;;;3.06;66.48;100725.66;5075491;28;67546;-61
2021/12/03 04:12:38;;;;;;;;;42.50;35.75;;;;;3.06;66.36;100715.28;5076353;28;45470;-61
2021/12/03 04:15:06;;;;;;;;;37.00;32.25;;;;;3.04;66.70;100715.38;5058074;28;52110;-61
2021/12/03 04:17:31;;;;;;;;;38.00;33.25;;;;;3.05;66.63;100706.69;5076291;28;45321;-62
2021/12/03 04:19:56;;;;;;;;;48.50;37.00;;;;;3.04;66.56;100707.59;5057413;28;62484;-61
2021/12/03 04:22:24;;;;;;;;;34.75;28.50;;;;;3.04;66.63;100715.38;5076222;28;45335;-61
2021/12/03 04:24:53;;;;;;;;;40.75;31.50;;;;;3.01;66.61;100718.16;5058509;28;45449;-62
2021/12/03 04:27:18;;;;;;;;;46.00;36.25;;;;;3.00;66.66;100728.59;5041954;28;45499;-61
2021/12/03 04:29:44;;;;;;;;;39.00;31.50;;;;;2.95;66.58;100724.47;5075445;28;65168;-61
2021/12/03 04:32:09;;;;;;;;;34.50;32.00;;;;;2.94;66.70;100733.19;5057131;28;66143;-61
2021/12/03 04:34:35;;;;;;;;;34.50;31.50;;;;;2.94;66.72;100732.38;5075243;28;64983;-61
2021/12/03 04:37:00;;;;;;;;;48.50;37.50;;;;;2.94;66.75;100734.97;5076071;28;45344;-61
2021/12/03 04:39:26;;;;;;;;;34.75;31.00;;;;;2.93;66.65;100733.28;5057800;28;46747;-61
2021/12/03 04:41:51;;;;;;;;;45.00;34.50;;;;;2.88;67.04;100730.94;5075332;28;51769;-61
2021/12/03 04:44:16;;;;;;;;;34.00;27.25;;;;;2.86;66.76;100726.75;5075386;28;60850;-62
2021/12/03 04:46:42;;;;;;;;;33.50;29.00;;;;;2.85;67.22;100730.25;5075237;28;64945;-62
2021/12/03 04:49:07;;;;;;;;;34.25;30.25;;;;;2.82;67.17;100726.91;5057553;28;45506;-61
2021/12/03 04:51:32;;;;;;;;;32.75;29.25;;;;;2.81;67.22;100725.22;5077608;28;62457;-62
2021/12/03 04:53:59;;;;;;;;;35.50;28.75;;;;;2.82;67.09;100718.28;5079252;28;45355;-61
2021/12/03 04:56:25;;;;;;;;;28.75;25.50;;;;;2.82;67.25;100713.94;5043563;28;67714;-61
2021/12/03 04:58:50;;;;;;;;;34.50;29.25;;;;;2.85;67.45;100709.50;5078295;28;67439;-61
2021/12/03 05:01:15;;;;;;;;;23.50;23.25;;;;;2.85;67.51;100709.50;5079128;28;45449;-61
2021/12/03 05:03:41;;;;;;;;;33.75;25.75;;;;;2.85;67.28;100718.13;5078413;28;58837;-61
2021/12/03 05:06:09;;;;;;;;;26.50;21.25;;;;;2.84;67.75;100713.88;5079167;28;45552;-62
2021/12/03 05:08:35;;;;;;;;;29.50;25.75;;;;;2.85;67.60;100717.28;5078862;28;45406;-61
2021/12/03 05:11:00;;;;;;;;;22.25;20.75;;;;;2.86;67.94;100708.56;5078050;28;67233;-61
2021/12/03 05:13:33;;;;;;;;;24.25;20.75;;;;;2.87;68.36;100698.13;5078242;28;62104;-61
2021/12/03 05:15:59;;;;;;;;;25.00;21.00;;;;;2.90;68.18;100702.31;5078946;28;45634;-61
2021/12/03 05:18:25;;;;;;;;;26.50;16.25;;;;;2.91;68.45;100702.25;5077982;28;66360;-61
2021/12/03 05:20:52;;;;;;;;;21.00;16.25;;;;;2.97;68.78;100698.47;5078821;28;45776;-61
2021/12/03 05:23:18;;;;;;;;;19.00;16.00;;;;;3.02;68.85;100693.00;5061164;28;45269;-61
2021/12/03 05:25:43;;;;;;;;;17.50;16.25;;;;;3.05;68.79;100687.66;5078707;28;47842;-61
2021/12/03 05:28:08;;;;;;;;;23.50;18.75;;;;;3.09;68.75;100689.16;5077627;28;73437;-62
2021/12/03 05:30:34;;;;;;;;;20.50;16.75;;;;;3.10;68.55;100686.50;5078035;28;57258;-61
2021/12/03 05:32:59;;;;;;;;;19.75;17.00;;;;;3.12;68.46;100683.81;5078081;28;63530;-61
2021/12/03 05:35:25;;;;;;;;;22.50;17.50;;;;;3.15;68.78;100690.59;5078046;28;61573;-61
2021/12/03 05:37:50;;;;;;;;;17.75;16.00;;;;;3.17;68.50;100692.19;5078323;28;51410;-61
2021/12/03 05:40:16;;;;;;;;;20.75;18.25;;;;;3.20;68.48;100688.56;5077846;28;66225;-61
2021/12/03 05:42:44;;;;;;;;;26.00;22.00;;;;;3.22;68.59;100684.13;5078389;28;45406;-60
2021/12/03 05:45:11;;;;;;;;;24.75;20.75;;;;;3.23;68.49;100683.19;5060535;28;45438;-61
2021/12/03 05:47:36;;;;;;;;;35.75;31.25;;;;;3.24;68.28;100680.53;5060305;28;46328;-61
2021/12/03 05:50:02;;;;;;;;;28.00;23.25;;;;;3.26;68.33;100662.25;5078344;28;45393;-62
2021/12/03 05:52:28;;;;;;;;;27.50;21.50;;;;;3.25;68.54;100665.78;5078585;28;45158;-61
2021/12/03 05:54:53;;;;;;;;;24.75;21.50;;;;;3.26;68.21;100662.25;5059815;28;58510;-62
2021/12/03 05:57:19;;;;;;;;;26.75;22.00;;;;;3.29;68.59;100661.28;5059405;28;64310;-61
2021/12/03 05:59:44;;;;;;;;;23.25;19.75;;;;;3.30;68.43;100663.75;5077262;28;71805;-61
2021/12/03 06:02:09;;;;;;;;;17.50;16.50;;;;;3.33;68.33;100650.59;5076882;28;54501;-61
2021/12/03 06:04:35;;;;;;;;;16.25;15.25;;;;;3.36;68.34;100641.81;5077753;28;59788;-61
2021/12/03 06:07:00;;;;;;;;;21.25;16.25;;;;;3.38;68.57;100633.00;5043084;28;46116;-61
2021/12/03 06:09:26;;;;;;;;;24.75;15.00;;;;;3.41;68.30;100632.84;5076926;28;68697;-61
2021/12/03 06:11:51;;;;;;;;;17.50;14.25;;;;;3.44;68.11;100625.78;5060160;28;45329;-61
2021/12/03 06:14:16;;;;;;;;;19.00;14.75;;;;;3.45;68.27;100643.06;5076981;28;65248;-61
2021/12/03 06:16:42;;;;;;;;;22.50;16.50;;;;;3.46;68.35;100642.13;5041912;28;70199;-62
2021/12/03 06:19:07;;;;;;;;;27.00;24.25;;;;;3.47;68.45;100651.59;5076961;28;68768;-61
2021/12/03 06:21:32;;;;;;;;;13.00;13.00;;;;;3.50;68.31;100652.25;5078073;28;46182;-62
2021/12/03 06:23:58;;;;;;;;;19.00;16.75;;;;;3.54;68.03;100645.94;5077140;28;61375;-62
2021/12/03 06:26:23;;;;;;;;;21.00;15.75;;;;;3.57;68.05;100639.75;5076874;28;64946;-62
2021/12/03 06:28:49;;;;;;;;;17.00;13.50;;;;;3.59;67.94;100658.69;5077683;28;45405;-61
2021/12/03 06:31:14;;;;;;;;;15.75;14.50;;;;;3.60;67.85;100669.91;5076542;28;45513;-61
2021/12/03 06:33:39;;;;;;;;;19.25;14.25;;;;;3.59;68.10;100665.63;5075547;28;56916;-61
2021/12/03 06:36:05;;;;;;;;;16.00;14.00;;;;;3.60;68.05;100664.72;5074956;28;71969;-61
2021/12/03 06:38:31;;;;;;;;;21.75;18.00;;;;;3.60;67.63;100662.13;5075446;28;45488;-61
2021/12/03 06:40:56;;;;;;;;;17.00;14.25;;;;;3.63;67.70;100654.16;5076370;28;45421;-61
2021/12/03 06:43:22;;;;;;;;;21.00;13.00;;;;;3.65;67.54;100652.31;5057744;28;65272;-61
2021/12/03 06:45:47;;;;;;;;;20.50;14.25;;;;;3.66;67.45;100654.81;5076072;28;67401;-61
2021/12/03 06:48:13;;;;;;;;;21.75;16.00;;;;;3.68;67.49;100660.78;5077298;28;45216;-61
2021/12/03 06:50:38;;;;;;;;;16.25;13.75;;;;;3.69;67.47;100657.25;5059042;28;45416;-61
2021/12/03 06:53:11;;;;;;;;;15.00;13.50;;;;;3.68;67.31;100647.78;5077223;28;45512;-61
2021/12/03 06:55:58;;;;;;;;;16.00;12.50;;;;;3.70;67.05;100655.47;5076790;28;46259;-61
2021/12/03 06:58:23;;;;;;;;;20.00;18.00;;;;;3.70;67.52;100651.13;5070721;27;45350;-61
2021/12/03 07:00:51;;;;;;;;;22.25;13.75;;;;;3.73;67.17;100637.09;5096794;27;60626;-61
2021/12/03 07:03:16;;;;;;;;;13.00;11.25;;;;;3.72;67.10;100644.06;5097510;27;45382;-61
2021/12/03 07:05:42;;;;;;;;;17.50;12.25;;;;;3.72;66.95;100651.84;5095785;27;57342;-61
2021/12/03 07:08:07;;;;;;;;;16.00;14.25;;;;;3.74;67.04;100650.91;5079283;27;45450;-61
2021/12/03 07:10:33;;;;;;;;;22.00;15.50;;;;;3.76;67.27;100651.66;5096673;27;59343;-61
2021/12/03 07:12:58;;;;;;;;;17.00;16.00;;;;;3.77;67.32;100650.75;5097254;27;45544;-61
2021/12/03 07:15:24;;;;;;;;;16.75;12.50;;;;;3.78;66.74;100645.47;5096298;27;46280;-61
2021/12/03 07:17:50;;;;;;;;;31.00;22.00;;;;;3.80;66.73;100647.97;5096928;27;45382;-60
2021/12/03 07:20:17;;;;;;;;;14.50;13.25;;;;;3.80;67.11;100645.38;5096903;27;45323;-60
2021/12/03 07:22:42;;;;;;;;;18.25;15.50;;;;;3.82;67.05;100643.53;5096768;27;45573;-61
2021/12/03 07:25:08;;;;;;;;;14.75;11.50;;;;;3.82;66.99;100646.13;5096840;27;46644;-60
2021/12/03 07:27:33;;;;;;;;;13.75;11.50;;;;;3.83;66.81;100640.00;5096760;27;45646;-60
2021/12/03 07:29:59;;;;;;;;;17.75;15.00;;;;;3.83;67.19;100638.25;5095673;27;45785;-60
2021/12/03 07:32:24;;;;;;;;;16.75;15.25;;;;;3.84;66.92;100636.47;5095980;27;45592;-60
2021/12/03 07:34:51;;;;;;;;;15.00;10.75;;;;;3.86;66.88;100624.22;5097029;27;46067;-60
2021/12/03 07:37:16;;;;;;;;;17.50;15.50;;;;;3.85;66.78;100635.53;5097169;27;45715;-60
2021/12/03 07:39:41;;;;;;;;;15.50;12.50;;;;;3.88;66.61;100637.16;5097156;27;45487;-61
2021/12/03 07:42:07;;;;;;;;;11.00;10.50;;;;;3.87;66.90;100631.09;5096805;27;45454;-60
2021/12/03 07:44:32;;;;;;;;;12.75;11.25;;;;;3.90;67.03;100630.09;5078527;27;48544;-61
2021/12/03 07:46:58;;;;;;;;;16.25;12.00;;;;;3.92;67.11;100634.25;5096764;27;45476;-60
2021/12/03 07:49:24;;;;;;;;;14.25;10.75;;;;;3.96;66.68;100640.94;5095859;27;66355;-60
2021/12/03 07:51:50;;;;;;;;;23.50;14.00;;;;;3.98;66.90;100639.09;5096868;27;45397;-60
2021/12/03 07:54:15;;;;;;;;;21.50;15.75;;;;;4.01;66.86;100646.72;5096605;27;45944;-60
2021/12/03 07:56:40;;;;;;;;;12.25;11.50;;;;;4.03;66.55;100644.00;5096595;27;51460;-60
2021/12/03 07:59:06;;;;;;;;;18.00;18.00;;;;;4.03;66.84;100649.22;5096382;27;55803;-60
2021/12/03 08:01:32;;;;;;;;;16.00;11.00;;;;;4.04;66.81;100643.09;5096849;27;45326;-60
2021/12/03 08:03:58;;;;;;;;;14.75;10.25;;;;;4.08;66.26;100639.38;5095465;27;45572;-60
2021/12/03 08:06:24;;;;;;;;;16.75;10.50;;;;;4.09;66.41;100635.03;5096621;27;45369;-61
2021/12/03 08:08:49;;;;;;;;;22.75;16.00;;;;;4.10;66.34;100624.53;5078254;27;45495;-60
2021/12/03 08:11:14;;;;;;;;;14.50;12.25;;;;;4.12;66.44;100624.44;5095250;27;45331;-60
2021/12/03 08:13:40;;;;;;;;;16.50;15.75;;;;;4.13;66.32;100626.13;5095759;27;67612;-60
2021/12/03 08:16:05;;;;;;;;;27.75;21.50;;;;;4.16;66.12;100638.94;5095871;27;63337;-61
2021/12/03 08:18:31;;;;;;;;;16.75;14.50;;;;;4.16;66.32;100633.75;5095787;27;66243;-60
2021/12/03 08:20:56;;;;;;;;;13.00;9.50;;;;;4.21;66.21;100636.91;5096657;27;45356;-60
2021/12/03 08:23:22;;;;;;;;;24.00;18.25;;;;;4.20;66.16;100636.97;5096435;27;45487;-60
2021/12/03 08:25:48;;;;;;;;;11.75;11.75;;;;;4.22;66.21;100633.38;5079825;27;45347;-60
2021/12/03 08:28:13;;;;;;;;;22.75;17.25;;;;;4.21;66.26;100634.31;5080823;27;65566;-61
2021/12/03 08:30:39;;;;;;;;;15.50;13.25;;;;;4.23;65.97;100631.59;5099957;27;45391;-60
2021/12/03 08:33:04;;;;;;;;;26.50;18.50;;;;;4.24;66.32;100639.28;5075921;27;45596;-60
2021/12/03 08:35:30;;;;;;;;;18.50;15.00;;;;;4.27;66.17;100638.28;5079622;27;64503;-60
2021/12/03 08:37:56;;;;;;;;;16.00;11.00;;;;;4.28;65.72;100632.16;5069614;27;45865;-61
2021/12/03 08:40:21;;;;;;;;;12.75;12.00;;;;;4.30;65.96;100636.31;5080166;27;46163;-60
2021/12/03 08:42:48;;;;;;;;;17.50;13.50;;;;;4.32;65.64;100628.44;5058986;28;45964;-60
2021/12/03 08:45:13;;;;;;;;;14.50;13.50;;;;;4.33;66.03;100634.47;5057270;28;45965;-60
2021/12/03 08:47:39;;;;;;;;;12.25;11.25;;;;;4.35;65.84;100635.22;5057584;28;45422;-60
2021/12/03 08:50:10;;;;;;;;;20.25;17.75;;;;;4.34;66.02;100630.94;5062437;28;45509;-60
2021/12/03 08:55:01;;;;;;;;;12.25;12.25;;;;;4.39;65.92;100628.88;5039621;28;45275;-60
2021/12/03 08:57:33;;;;;;;;;12.25;10.75;;;;;4.42;65.72;100633.91;5057767;28;45269;-60
2021/12/03 09:00:01;;;;;;;;;13.75;12.25;;;;;4.46;65.60;100627.59;5052208;28;45432;-60
2021/12/03 09:02:26;;;;;;;;;20.00;14.25;;;;;4.47;65.72;100626.66;5057404;28;46458;-60
2021/12/03 09:04:52;;;;;;;;;14.00;12.25;;;;;4.47;65.88;100634.47;5069839;28;45333;-60
2021/12/03 09:07:17;;;;;;;;;23.75;17.25;;;;;4.50;65.51;100636.06;5031487;28;45262;-60
2021/12/03 09:09:43;;;;;;;;;15.00;12.75;;;;;4.52;65.62;100631.56;5057751;28;45281;-60
2021/12/03 09:12:08;;;;;;;;;18.50;14.25;;;;;4.56;65.52;100620.03;5057173;28;45955;-60
2021/12/03 09:20:03;;;;;;;;;13.50;13.00;;;;;4.59;65.37;100615.50;5059197;28;45452;-60
2021/12/03 09:22:51;;;;;;;;;12.25;11.75;;;;;4.63;65.01;100618.75;5031245;28;46549;-60
2021/12/03 09:25:17;;;;;;;;;13.00;12.25;;;;;4.65;65.39;100608.25;5056692;28;45795;-60
2021/12/03 09:27:43;;;;;;;;;11.00;9.50;;;;;4.65;64.92;100605.66;5057680;28;45428;-60
2021/12/03 09:30:13;;;;;;;;;18.75;11.75;;;;;4.66;65.00;100608.13;5057141;28;45617;-60
2021/12/03 09:32:39;;;;;;;;;19.50;16.75;;;;;4.69;64.60;100599.31;5060547;28;46616;-60
2021/12/03 09:35:05;;;;;;;;;14.50;12.75;;;;;4.71;64.95;100600.06;5067740;28;45591;-60
2021/12/03 09:37:31;;;;;;;;;19.00;14.00;;;;;4.73;65.03;100588.59;5055711;28;45312;-60
2021/12/03 09:40:03;;;;;;;;;12.75;11.50;;;;;4.78;65.10;100590.09;5056652;28;67672;-60
2021/12/03 09:42:28;;;;;;;;;16.75;12.75;;;;;4.81;64.91;100589.88;5068246;27;47844;-60
2021/12/03 09:44:54;;;;;;;;;14.00;11.75;;;;;4.82;64.66;100587.16;5030370;28;45405;-60
2021/12/03 09:47:19;;;;;;;;;14.00;8.75;;;;;4.84;64.94;100585.31;5056838;28;45218;-60
2021/12/03 09:49:46;;;;;;;;;17.50;10.25;;;;;4.88;64.86;100581.59;5039200;28;45338;-60
2021/12/03 09:52:28;;;;;;;;;20.25;14.00;;;;;4.88;64.94;100576.38;5057332;28;45538;-60
2021/12/03 09:55:09;;;;;;;;;10.25;8.00;;;;;4.93;64.47;100580.44;5042607;28;45917;-60
2021/12/03 10:00:14;;;;;;;;;13.00;8.50;;;;;4.95;64.52;100573.38;5056501;28;45396;-60
2021/12/03 10:06:49;;;;;;;;;11.00;9.50;;;;;4.94;64.79;100571.72;5056425;28;45780;-60
2021/12/03 10:13:52;;;;;;;;;10.75;8.00;;;;;4.99;64.52;100578.31;5022066;28;45216;-60
2021/12/03 10:16:44;;;;;;;;;9.75;9.00;;;;;4.99;64.67;100570.50;5064708;28;45495;-60
2021/12/03 10:19:43;;;;;;;;;12.75;9.25;;;;;5.02;64.72;100567.69;5056360;28;45304;-60
2021/12/03 10:41:53;;;;;;;;;8.50;8.50;;;;;5.05;65.96;100520.59;5060907;27;45493;-60
2021/12/03 10:46:55;;;;;;;;;14.50;9.75;;;;;5.02;66.50;100523.44;5075934;27;45299;-60
2021/12/03 10:57:13;;;;;;;;;9.50;9.00;;;;;4.90;67.68;100480.78;5075976;27;45181;-61
2021/12/03 11:00:46;;;;;;;;;6.00;4.00;;;;;4.90;67.12;100478.16;5076728;27;45991;-60
2021/12/03 11:05:44;;;;;;;;;14.00;10.25;;;;;4.80;67.31;100473.69;5075500;27;45390;-60
2021/12/03 11:43:49;;;;;;;;;12.50;8.25;;;;;4.64;69.55;100411.38;5076091;27;45398;-60
2021/12/03 12:15:30;;;;;;;;;7.25;7.25;;;;;4.36;71.49;100332.53;5077506;27;45507;-60
2021/12/03 12:24:00;;;;;;;;;6.50;6.00;;;;;4.33;71.92;100314.50;5077697;27;45387;-60
2021/12/03 12:35:11;;;;;;;;;9.50;6.50;;;;;4.27;71.88;100289.75;5067321;27;45479;-60
2021/12/03 13:05:35;;;;;;;;;5.00;5.00;;;;;4.31;72.57;100253.03;5074234;27;45223;-60
2021/12/03 13:59:56;;;;;;;;;6.75;5.50;;;;;4.50;72.87;100158.13;5049463;28;45304;-60
2021/12/03 14:37:33;;;;;;;;;7.00;6.50;;;;;4.64;73.88;100099.09;5055909;28;45453;-60
2021/12/03 14:40:35;;;;;;;;;6.25;4.00;;;;;4.65;73.92;100105.97;5047314;28;45828;-60
2021/12/03 14:57:19;;;;;;;;;9.25;7.50;;;;;4.72;74.08;100086.38;5055886;28;45473;-62
2021/12/03 14:59:53;;;;;;;;;8.00;5.00;;;;;4.72;74.28;100071.59;5045633;28;46076;-62
2021/12/03 15:05:12;;;;;;;;;5.50;5.00;;;;;4.75;73.96;100065.34;5048501;28;45516;-62
2021/12/03 15:07:44;;;;;;;;;4.00;4.00;;;;;4.77;74.27;100037.41;5039220;28;45256;-62
2021/12/03 15:10:21;;;;;;;;;5.50;4.00;;;;;4.81;74.03;100035.44;5029600;28;46618;-62
2021/12/03 15:24:16;;;;;;;;;9.00;4.00;;;;;4.93;74.18;100023.28;5058378;28;45866;-61
2021/12/03 15:37:00;;;;;;;;;12.25;9.50;;;;;5.00;74.25;100027.09;5055589;28;45593;-61
2021/12/03 15:54:11;;;;;;;;;7.50;7.50;;;;;5.02;74.17;100002.63;5057126;28;45500;-61
2021/12/03 16:06:42;;;;;;;;;12.25;11.00;;;;;5.00;74.70;99998.47;5034896;28;45412;-61
2021/12/03 16:09:14;;;;;;;;;10.00;9.00;;;;;5.00;74.79;99991.50;5037044;28;45551;-61
2021/12/03 16:11:48;;;;;;;;;9.50;8.25;;;;;5.01;74.82;99981.91;5057083;28;45534;-61
2021/12/03 16:24:37;;;;;;;;;10.75;8.00;;;;;5.07;74.93;99949.34;5058120;28;45990;-61
2021/12/03 16:51:55;;;;;;;;;33.25;31.00;;;;;5.27;74.81;99899.19;5082084;27;45800;-61
2021/12/03 16:57:07;;;;;;;;;9.50;8.25;;;;;5.29;74.58;99888.69;5079414;27;45678;-61
2021/12/03 16:59:33;;;;;;;;;27.50;24.50;;;;;5.28;74.86;99887.84;5072288;27;45940;-61
2021/12/03 17:02:03;;;;;;;;;14.00;14.00;;;;;5.29;74.67;99883.47;5076794;27;45652;-62
2021/12/03 17:12:56;;;;;;;;;36.25;32.50;;;;;5.31;74.99;99868.53;5076158;27;45450;-61
2021/12/03 17:23:33;;;;;;;;;15.75;13.50;;;;;5.34;74.76;99858.72;5078419;27;45428;-61